sensor_id;sensor_type;location;lat;lon;timestamp;temperature;humidity
67050;DHT22;53955;52.442;13.284;2023-09-07T00:01:52;23.20;50.50
67050;DHT22;53955;52.442;13.284;2023-09-07T00:04:20;23.30;50.70
67050;DHT22;53955;52.442;13.284;2023-09-07T00:06:48;23.20;50.40
67050;DHT22;53955;52.442;13.284;2023-09-07T00:09:15;23.20;50.90
67050;DHT22;53955;52.442;13.284;2023-09-07T00:11:43;23.20;51.40
67050;DHT22;53955;52.442;13.284;2023-09-07T00:14:10;23.20;50.80
67050;DHT22;53955;52.442;13.284;2023-09-07T00:16:36;23.10;51.30
67050;DHT22;53955;52.442;13.284;2023-09-07T00:19:03;23.10;51.00
67050;DHT22;53955;52.442;13.284;2023-09-07T00:21:31;23.10;51.00
67050;DHT22;53955;52.442;13.284;2023-09-07T00:23:58;23.10;50.90
67050;DHT22;53955;52.442;13.284;2023-09-07T00:26:29;23.10;50.90
67050;DHT22;53955;52.442;13.284;2023-09-07T00:28:56;23.00;51.90
67050;DHT22;53955;52.442;13.284;2023-09-07T00:31:22;23.00;52.20
67050;DHT22;53955;52.442;13.284;2023-09-07T00:33:49;22.90;51.30
67050;DHT22;53955;52.442;13.284;2023-09-07T00:36:15;22.90;52.20
67050;DHT22;53955;52.442;13.284;2023-09-07T00:38:45;22.90;52.70
67050;DHT22;53955;52.442;13.284;2023-09-07T00:41:12;23.00;53.00
67050;DHT22;53955;52.442;13.284;2023-09-07T00:43:39;22.90;52.90
67050;DHT22;53955;52.442;13.284;2023-09-07T00:46:06;22.80;53.50
67050;DHT22;53955;52.442;13.284;2023-09-07T00:48:33;22.80;53.30
67050;DHT22;53955;52.442;13.284;2023-09-07T00:51:00;22.80;53.20
67050;DHT22;53955;52.442;13.284;2023-09-07T00:53:27;22.80;53.10
67050;DHT22;53955;52.442;13.284;2023-09-07T00:55:55;22.70;53.70
67050;DHT22;53955;52.442;13.284;2023-09-07T00:58:22;22.70;52.90
67050;DHT22;53955;52.442;13.284;2023-09-07T01:00:49;22.50;53.90
67050;DHT22;53955;52.442;13.284;2023-09-07T01:03:15;22.50;53.80
67050;DHT22;53955;52.442;13.284;2023-09-07T01:05:43;22.60;53.10
67050;DHT22;53955;52.442;13.284;2023-09-07T01:08:12;22.60;54.10
67050;DHT22;53955;52.442;13.284;2023-09-07T01:10:41;22.60;53.70
67050;DHT22;53955;52.442;13.284;2023-09-07T01:13:09;22.60;54.00
67050;DHT22;53955;52.442;13.284;2023-09-07T01:15:36;22.60;54.00
67050;DHT22;53955;52.442;13.284;2023-09-07T01:18:04;22.60;54.00
67050;DHT22;53955;52.442;13.284;2023-09-07T01:20:32;22.60;53.80
67050;DHT22;53955;52.442;13.284;2023-09-07T01:23:02;22.60;54.10
67050;DHT22;53955;52.442;13.284;2023-09-07T01:25:30;22.60;54.40
67050;DHT22;53955;52.442;13.284;2023-09-07T01:27:57;22.50;54.40
67050;DHT22;53955;52.442;13.284;2023-09-07T01:30:27;22.50;54.30
67050;DHT22;53955;52.442;13.284;2023-09-07T01:32:53;22.60;54.10
67050;DHT22;53955;52.442;13.284;2023-09-07T01:35:20;22.60;53.40
67050;DHT22;53955;52.442;13.284;2023-09-07T01:37:48;22.60;54.40
67050;DHT22;53955;52.442;13.284;2023-09-07T01:40:16;22.50;54.70
67050;DHT22;53955;52.442;13.284;2023-09-07T01:42:42;22.60;53.90
67050;DHT22;53955;52.442;13.284;2023-09-07T01:45:09;22.50;54.60
67050;DHT22;53955;52.442;13.284;2023-09-07T01:47:36;22.40;54.70
67050;DHT22;53955;52.442;13.284;2023-09-07T01:50:09;22.40;54.70
67050;DHT22;53955;52.442;13.284;2023-09-07T01:52:35;22.40;55.10
67050;DHT22;53955;52.442;13.284;2023-09-07T01:55:02;22.30;54.70
67050;DHT22;53955;52.442;13.284;2023-09-07T01:57:30;22.30;55.70
67050;DHT22;53955;52.442;13.284;2023-09-07T01:59:57;22.30;55.40
67050;DHT22;53955;52.442;13.284;2023-09-07T02:02:24;22.30;54.80
67050;DHT22;53955;52.442;13.284;2023-09-07T02:04:50;22.30;55.80
67050;DHT22;53955;52.442;13.284;2023-09-07T02:07:17;22.20;55.60
67050;DHT22;53955;52.442;13.284;2023-09-07T02:09:43;22.20;55.30
67050;DHT22;53955;52.442;13.284;2023-09-07T02:12:09;22.30;54.50
67050;DHT22;53955;52.442;13.284;2023-09-07T02:14:38;22.20;55.10
67050;DHT22;53955;52.442;13.284;2023-09-07T02:17:05;22.20;54.80
67050;DHT22;53955;52.442;13.284;2023-09-07T02:19:31;22.30;55.00
67050;DHT22;53955;52.442;13.284;2023-09-07T02:21:58;22.20;55.50
67050;DHT22;53955;52.442;13.284;2023-09-07T02:24:24;22.20;54.70
67050;DHT22;53955;52.442;13.284;2023-09-07T02:26:51;22.20;55.60
67050;DHT22;53955;52.442;13.284;2023-09-07T02:29:17;22.10;55.60
67050;DHT22;53955;52.442;13.284;2023-09-07T02:31:45;22.30;55.80
67050;DHT22;53955;52.442;13.284;2023-09-07T02:34:12;22.10;55.50
67050;DHT22;53955;52.442;13.284;2023-09-07T02:36:38;22.10;55.50
67050;DHT22;53955;52.442;13.284;2023-09-07T02:39:05;22.10;55.30
67050;DHT22;53955;52.442;13.284;2023-09-07T02:41:33;22.20;55.30
67050;DHT22;53955;52.442;13.284;2023-09-07T02:44:00;22.10;55.00
67050;DHT22;53955;52.442;13.284;2023-09-07T02:46:27;22.10;56.30
67050;DHT22;53955;52.442;13.284;2023-09-07T02:48:54;22.00;56.20
67050;DHT22;53955;52.442;13.284;2023-09-07T02:51:23;22.00;56.10
67050;DHT22;53955;52.442;13.284;2023-09-07T02:53:49;22.00;56.50
67050;DHT22;53955;52.442;13.284;2023-09-07T02:56:16;22.00;56.10
67050;DHT22;53955;52.442;13.284;2023-09-07T02:58:42;22.00;55.80
67050;DHT22;53955;52.442;13.284;2023-09-07T03:01:10;22.00;56.40
67050;DHT22;53955;52.442;13.284;2023-09-07T03:03:38;22.00;56.30
67050;DHT22;53955;52.442;13.284;2023-09-07T03:06:11;21.90;56.00
67050;DHT22;53955;52.442;13.284;2023-09-07T03:08:38;21.90;56.50
67050;DHT22;53955;52.442;13.284;2023-09-07T03:11:05;21.90;56.00
67050;DHT22;53955;52.442;13.284;2023-09-07T03:13:32;21.80;55.60
67050;DHT22;53955;52.442;13.284;2023-09-07T03:15:59;21.90;55.90
67050;DHT22;53955;52.442;13.284;2023-09-07T03:18:26;21.80;56.30
67050;DHT22;53955;52.442;13.284;2023-09-07T03:20:54;21.80;56.30
67050;DHT22;53955;52.442;13.284;2023-09-07T03:23:23;21.80;56.20
67050;DHT22;53955;52.442;13.284;2023-09-07T03:25:49;21.70;55.60
67050;DHT22;53955;52.442;13.284;2023-09-07T03:28:16;21.70;56.20
67050;DHT22;53955;52.442;13.284;2023-09-07T03:30:42;21.60;56.80
67050;DHT22;53955;52.442;13.284;2023-09-07T03:33:09;21.50;56.80
67050;DHT22;53955;52.442;13.284;2023-09-07T03:35:35;21.50;57.00
67050;DHT22;53955;52.442;13.284;2023-09-07T03:38:03;21.60;57.00
67050;DHT22;53955;52.442;13.284;2023-09-07T03:40:31;21.60;56.90
67050;DHT22;53955;52.442;13.284;2023-09-07T03:42:57;21.60;57.20
67050;DHT22;53955;52.442;13.284;2023-09-07T03:45:24;21.60;57.40
67050;DHT22;53955;52.442;13.284;2023-09-07T03:47:50;21.60;57.20
67050;DHT22;53955;52.442;13.284;2023-09-07T03:50:17;21.50;56.50
67050;DHT22;53955;52.442;13.284;2023-09-07T03:52:43;21.50;57.20
67050;DHT22;53955;52.442;13.284;2023-09-07T03:55:10;21.50;57.20
67050;DHT22;53955;52.442;13.284;2023-09-07T03:57:38;21.50;57.20
67050;DHT22;53955;52.442;13.284;2023-09-07T04:00:06;21.40;56.60
67050;DHT22;53955;52.442;13.284;2023-09-07T04:02:34;21.40;57.60
67050;DHT22;53955;52.442;13.284;2023-09-07T04:05:01;21.40;57.60
67050;DHT22;53955;52.442;13.284;2023-09-07T04:07:30;21.30;57.50
67050;DHT22;53955;52.442;13.284;2023-09-07T04:09:57;21.40;58.00
67050;DHT22;53955;52.442;13.284;2023-09-07T04:12:23;21.40;57.80
67050;DHT22;53955;52.442;13.284;2023-09-07T04:14:52;21.40;57.90
67050;DHT22;53955;52.442;13.284;2023-09-07T04:17:19;21.40;57.00
67050;DHT22;53955;52.442;13.284;2023-09-07T04:19:45;21.30;57.70
67050;DHT22;53955;52.442;13.284;2023-09-07T04:22:12;21.40;57.10
67050;DHT22;53955;52.442;13.284;2023-09-07T04:24:38;21.60;57.60
67050;DHT22;53955;52.442;13.284;2023-09-07T04:27:05;21.60;57.00
67050;DHT22;53955;52.442;13.284;2023-09-07T04:29:31;21.60;56.60
67050;DHT22;53955;52.442;13.284;2023-09-07T04:31:59;21.80;55.50
67050;DHT22;53955;52.442;13.284;2023-09-07T04:34:26;21.80;55.80
67050;DHT22;53955;52.442;13.284;2023-09-07T04:36:52;21.90;55.50
67050;DHT22;53955;52.442;13.284;2023-09-07T04:39:19;21.90;55.00
67050;DHT22;53955;52.442;13.284;2023-09-07T04:41:45;22.20;55.30
67050;DHT22;53955;52.442;13.284;2023-09-07T04:44:12;22.40;53.70
67050;DHT22;53955;52.442;13.284;2023-09-07T04:46:38;22.30;54.20
67050;DHT22;53955;52.442;13.284;2023-09-07T04:49:07;22.00;54.40
67050;DHT22;53955;52.442;13.284;2023-09-07T04:51:34;21.90;55.00
67050;DHT22;53955;52.442;13.284;2023-09-07T04:54:00;21.80;55.10
67050;DHT22;53955;52.442;13.284;2023-09-07T04:56:27;21.90;54.40
67050;DHT22;53955;52.442;13.284;2023-09-07T04:58:54;21.80;55.30
67050;DHT22;53955;52.442;13.284;2023-09-07T05:01:20;21.90;55.70
67050;DHT22;53955;52.442;13.284;2023-09-07T05:03:47;21.70;55.70
67050;DHT22;53955;52.442;13.284;2023-09-07T05:06:16;21.70;55.90
67050;DHT22;53955;52.442;13.284;2023-09-07T05:08:43;21.60;56.10
67050;DHT22;53955;52.442;13.284;2023-09-07T05:11:10;21.60;56.30
67050;DHT22;53955;52.442;13.284;2023-09-07T05:13:36;21.50;56.50
67050;DHT22;53955;52.442;13.284;2023-09-07T05:16:03;21.60;56.60
67050;DHT22;53955;52.442;13.284;2023-09-07T05:18:30;21.70;56.10
67050;DHT22;53955;52.442;13.284;2023-09-07T05:20:56;21.80;55.90
67050;DHT22;53955;52.442;13.284;2023-09-07T05:23:24;21.70;55.60
67050;DHT22;53955;52.442;13.284;2023-09-07T05:25:53;21.90;55.60
67050;DHT22;53955;52.442;13.284;2023-09-07T05:28:21;21.80;55.40
67050;DHT22;53955;52.442;13.284;2023-09-07T05:30:48;21.90;55.80
67050;DHT22;53955;52.442;13.284;2023-09-07T05:33:16;22.00;54.70
67050;DHT22;53955;52.442;13.284;2023-09-07T05:35:43;22.20;54.80
67050;DHT22;53955;52.442;13.284;2023-09-07T05:38:11;22.70;53.90
67050;DHT22;53955;52.442;13.284;2023-09-07T05:40:40;23.40;51.60
67050;DHT22;53955;52.442;13.284;2023-09-07T05:43:06;25.20;44.20
67050;DHT22;53955;52.442;13.284;2023-09-07T05:45:35;27.10;39.90
67050;DHT22;53955;52.442;13.284;2023-09-07T05:48:03;29.10;34.70
67050;DHT22;53955;52.442;13.284;2023-09-07T05:50:29;30.90;31.00
67050;DHT22;53955;52.442;13.284;2023-09-07T05:52:56;32.40;28.10
67050;DHT22;53955;52.442;13.284;2023-09-07T05:55:23;33.80;25.50
67050;DHT22;53955;52.442;13.284;2023-09-07T05:57:53;33.50;25.70
67050;DHT22;53955;52.442;13.284;2023-09-07T06:00:20;34.30;24.20
67050;DHT22;53955;52.442;13.284;2023-09-07T06:02:46;34.70;22.90
67050;DHT22;53955;52.442;13.284;2023-09-07T06:05:13;35.00;22.60
67050;DHT22;53955;52.442;13.284;2023-09-07T06:07:40;35.50;22.60
67050;DHT22;53955;52.442;13.284;2023-09-07T06:10:07;36.30;21.10
67050;DHT22;53955;52.442;13.284;2023-09-07T06:12:35;36.10;20.80
67050;DHT22;53955;52.442;13.284;2023-09-07T06:15:03;36.30;20.60
67050;DHT22;53955;52.442;13.284;2023-09-07T06:17:30;35.40;21.40
67050;DHT22;53955;52.442;13.284;2023-09-07T06:19:57;36.60;20.90
67050;DHT22;53955;52.442;13.284;2023-09-07T06:22:23;37.60;19.30
67050;DHT22;53955;52.442;13.284;2023-09-07T06:24:50;38.10;17.60
67050;DHT22;53955;52.442;13.284;2023-09-07T06:27:16;36.90;19.20
67050;DHT22;53955;52.442;13.284;2023-09-07T06:29:43;36.70;19.50
67050;DHT22;53955;52.442;13.284;2023-09-07T06:32:11;37.00;19.20
67050;DHT22;53955;52.442;13.284;2023-09-07T06:34:37;37.90;18.10
67050;DHT22;53955;52.442;13.284;2023-09-07T06:37:04;38.30;17.30
67050;DHT22;53955;52.442;13.284;2023-09-07T06:39:30;38.80;17.70
67050;DHT22;53955;52.442;13.284;2023-09-07T06:41:57;39.00;16.60
67050;DHT22;53955;52.442;13.284;2023-09-07T06:44:23;39.30;16.80
67050;DHT22;53955;52.442;13.284;2023-09-07T06:46:50;39.40;16.00
67050;DHT22;53955;52.442;13.284;2023-09-07T06:49:17;39.50;15.80
67050;DHT22;53955;52.442;13.284;2023-09-07T06:51:44;40.40;14.90
67050;DHT22;53955;52.442;13.284;2023-09-07T06:54:10;40.30;14.90
67050;DHT22;53955;52.442;13.284;2023-09-07T06:56:38;39.80;15.00
67050;DHT22;53955;52.442;13.284;2023-09-07T06:59:05;39.80;15.00
67050;DHT22;53955;52.442;13.284;2023-09-07T07:01:31;40.10;15.70
67050;DHT22;53955;52.442;13.284;2023-09-07T07:03:58;39.80;15.30
67050;DHT22;53955;52.442;13.284;2023-09-07T07:06:26;39.00;15.30
67050;DHT22;53955;52.442;13.284;2023-09-07T07:08:52;37.70;17.00
67050;DHT22;53955;52.442;13.284;2023-09-07T07:11:19;36.60;18.50
67050;DHT22;53955;52.442;13.284;2023-09-07T07:13:46;35.20;19.00
67050;DHT22;53955;52.442;13.284;2023-09-07T07:16:12;34.00;20.70
67050;DHT22;53955;52.442;13.284;2023-09-07T07:18:39;33.40;21.60
67050;DHT22;53955;52.442;13.284;2023-09-07T07:21:05;32.60;21.50
67050;DHT22;53955;52.442;13.284;2023-09-07T07:23:33;31.60;22.50
67050;DHT22;53955;52.442;13.284;2023-09-07T07:26:00;31.30;23.90
67050;DHT22;53955;52.442;13.284;2023-09-07T07:28:26;31.00;24.30
67050;DHT22;53955;52.442;13.284;2023-09-07T07:30:53;30.50;25.00
67050;DHT22;53955;52.442;13.284;2023-09-07T07:33:20;30.80;25.80
67050;DHT22;53955;52.442;13.284;2023-09-07T07:35:47;30.50;25.10
67050;DHT22;53955;52.442;13.284;2023-09-07T07:38:14;30.50;25.80
67050;DHT22;53955;52.442;13.284;2023-09-07T07:40:42;30.50;25.30
67050;DHT22;53955;52.442;13.284;2023-09-07T07:43:10;31.00;25.20
67050;DHT22;53955;52.442;13.284;2023-09-07T07:45:38;31.00;24.50
67050;DHT22;53955;52.442;13.284;2023-09-07T07:48:05;31.00;24.60
67050;DHT22;53955;52.442;13.284;2023-09-07T07:50:36;31.00;24.90
67050;DHT22;53955;52.442;13.284;2023-09-07T07:53:03;31.10;24.90
67050;DHT22;53955;52.442;13.284;2023-09-07T07:55:30;31.20;24.70
67050;DHT22;53955;52.442;13.284;2023-09-07T07:57:58;30.90;24.50
67050;DHT22;53955;52.442;13.284;2023-09-07T08:00:24;30.80;24.90
67050;DHT22;53955;52.442;13.284;2023-09-07T08:02:51;30.60;24.80
67050;DHT22;53955;52.442;13.284;2023-09-07T08:05:17;30.90;25.00
67050;DHT22;53955;52.442;13.284;2023-09-07T08:07:44;30.80;24.70
67050;DHT22;53955;52.442;13.284;2023-09-07T08:10:10;30.70;24.40
67050;DHT22;53955;52.442;13.284;2023-09-07T08:12:37;30.10;25.00
67050;DHT22;53955;52.442;13.284;2023-09-07T08:15:05;30.50;24.50
67050;DHT22;53955;52.442;13.284;2023-09-07T08:17:32;30.70;24.20
67050;DHT22;53955;52.442;13.284;2023-09-07T08:19:59;30.10;24.20
67050;DHT22;53955;52.442;13.284;2023-09-07T08:22:25;29.90;25.20
67050;DHT22;53955;52.442;13.284;2023-09-07T08:24:53;30.30;24.50
67050;DHT22;53955;52.442;13.284;2023-09-07T08:27:19;30.30;25.70
67050;DHT22;53955;52.442;13.284;2023-09-07T08:29:46;30.50;24.70
67050;DHT22;53955;52.442;13.284;2023-09-07T08:32:18;30.30;24.20
67050;DHT22;53955;52.442;13.284;2023-09-07T08:34:44;30.70;26.10
67050;DHT22;53955;52.442;13.284;2023-09-07T08:37:11;30.80;25.40
67050;DHT22;53955;52.442;13.284;2023-09-07T08:39:38;31.10;23.80
67050;DHT22;53955;52.442;13.284;2023-09-07T08:42:05;31.40;24.90
67050;DHT22;53955;52.442;13.284;2023-09-07T08:44:33;31.30;25.50
67050;DHT22;53955;52.442;13.284;2023-09-07T08:47:02;31.30;23.00
67050;DHT22;53955;52.442;13.284;2023-09-07T08:49:30;31.40;23.80
67050;DHT22;53955;52.442;13.284;2023-09-07T08:51:59;31.30;24.30
67050;DHT22;53955;52.442;13.284;2023-09-07T08:54:26;31.60;23.50
67050;DHT22;53955;52.442;13.284;2023-09-07T08:56:54;31.20;21.50
67050;DHT22;53955;52.442;13.284;2023-09-07T08:59:22;31.00;22.10
67050;DHT22;53955;52.442;13.284;2023-09-07T09:01:49;30.80;23.10
67050;DHT22;53955;52.442;13.284;2023-09-07T09:04:15;30.30;22.60
67050;DHT22;53955;52.442;13.284;2023-09-07T09:06:43;29.90;23.60
67050;DHT22;53955;52.442;13.284;2023-09-07T09:09:10;29.60;23.80
67050;DHT22;53955;52.442;13.284;2023-09-07T09:11:38;30.10;24.90
67050;DHT22;53955;52.442;13.284;2023-09-07T09:14:05;30.70;24.80
67050;DHT22;53955;52.442;13.284;2023-09-07T09:16:33;31.10;23.50
67050;DHT22;53955;52.442;13.284;2023-09-07T09:18:59;31.20;23.50
67050;DHT22;53955;52.442;13.284;2023-09-07T09:21:26;30.90;21.80
67050;DHT22;53955;52.442;13.284;2023-09-07T09:23:56;30.70;21.30
67050;DHT22;53955;52.442;13.284;2023-09-07T09:26:23;30.50;22.10
67050;DHT22;53955;52.442;13.284;2023-09-07T09:28:50;30.10;22.10
67050;DHT22;53955;52.442;13.284;2023-09-07T09:31:17;29.60;22.60
67050;DHT22;53955;52.442;13.284;2023-09-07T09:33:48;29.80;24.20
67050;DHT22;53955;52.442;13.284;2023-09-07T09:36:16;30.30;23.40
67050;DHT22;53955;52.442;13.284;2023-09-07T09:38:47;30.70;22.90
67050;DHT22;53955;52.442;13.284;2023-09-07T09:41:16;31.10;23.70
67050;DHT22;53955;52.442;13.284;2023-09-07T09:43:43;30.80;21.60
67050;DHT22;53955;52.442;13.284;2023-09-07T09:46:14;30.60;22.90
67050;DHT22;53955;52.442;13.284;2023-09-07T09:48:42;30.30;22.50
67050;DHT22;53955;52.442;13.284;2023-09-07T09:51:08;30.40;24.20
67050;DHT22;53955;52.442;13.284;2023-09-07T09:53:36;30.40;21.90
67050;DHT22;53955;52.442;13.284;2023-09-07T09:56:03;29.60;23.10
67050;DHT22;53955;52.442;13.284;2023-09-07T09:58:31;29.50;23.90
67050;DHT22;53955;52.442;13.284;2023-09-07T10:01:00;29.30;24.40
67050;DHT22;53955;52.442;13.284;2023-09-07T10:03:32;29.50;24.80
67050;DHT22;53955;52.442;13.284;2023-09-07T10:06:07;29.60;23.70
67050;DHT22;53955;52.442;13.284;2023-09-07T10:08:34;29.60;23.80
67050;DHT22;53955;52.442;13.284;2023-09-07T10:11:07;29.40;23.20
67050;DHT22;53955;52.442;13.284;2023-09-07T10:13:35;29.30;23.90
67050;DHT22;53955;52.442;13.284;2023-09-07T10:16:02;29.40;23.10
67050;DHT22;53955;52.442;13.284;2023-09-07T10:18:33;29.50;24.60
67050;DHT22;53955;52.442;13.284;2023-09-07T10:21:01;29.80;24.10
67050;DHT22;53955;52.442;13.284;2023-09-07T10:23:38;30.20;23.60
67050;DHT22;53955;52.442;13.284;2023-09-07T10:26:09;30.20;22.40
67050;DHT22;53955;52.442;13.284;2023-09-07T10:28:38;30.20;24.00
67050;DHT22;53955;52.442;13.284;2023-09-07T10:31:06;30.00;22.70
67050;DHT22;53955;52.442;13.284;2023-09-07T10:33:34;30.00;23.30
67050;DHT22;53955;52.442;13.284;2023-09-07T10:36:01;30.10;22.90
67050;DHT22;53955;52.442;13.284;2023-09-07T10:38:29;29.90;22.20
67050;DHT22;53955;52.442;13.284;2023-09-07T10:40:58;29.50;22.60
67050;DHT22;53955;52.442;13.284;2023-09-07T10:43:25;29.50;23.10
67050;DHT22;53955;52.442;13.284;2023-09-07T10:45:54;29.60;23.50
67050;DHT22;53955;52.442;13.284;2023-09-07T10:48:22;29.60;22.00
67050;DHT22;53955;52.442;13.284;2023-09-07T10:50:49;29.80;20.90
67050;DHT22;53955;52.442;13.284;2023-09-07T10:53:24;29.70;20.90
67050;DHT22;53955;52.442;13.284;2023-09-07T10:55:51;30.00;21.10
67050;DHT22;53955;52.442;13.284;2023-09-07T10:58:24;30.00;20.90
67050;DHT22;53955;52.442;13.284;2023-09-07T11:00:53;30.00;20.90
67050;DHT22;53955;52.442;13.284;2023-09-07T11:03:20;29.90;20.30
67050;DHT22;53955;52.442;13.284;2023-09-07T11:05:47;29.80;21.30
67050;DHT22;53955;52.442;13.284;2023-09-07T11:08:14;30.10;20.30
67050;DHT22;53955;52.442;13.284;2023-09-07T11:10:41;30.20;19.40
67050;DHT22;53955;52.442;13.284;2023-09-07T11:13:09;30.30;19.50
67050;DHT22;53955;52.442;13.284;2023-09-07T11:15:35;30.20;19.40
67050;DHT22;53955;52.442;13.284;2023-09-07T11:18:06;30.10;19.60
67050;DHT22;53955;52.442;13.284;2023-09-07T11:20:34;30.20;19.80
67050;DHT22;53955;52.442;13.284;2023-09-07T11:23:00;30.10;20.10
67050;DHT22;53955;52.442;13.284;2023-09-07T11:25:27;30.20;18.70
67050;DHT22;53955;52.442;13.284;2023-09-07T11:27:53;29.80;19.40
67050;DHT22;53955;52.442;13.284;2023-09-07T11:30:23;29.70;19.60
67050;DHT22;53955;52.442;13.284;2023-09-07T11:32:50;29.90;19.30
67050;DHT22;53955;52.442;13.284;2023-09-07T11:35:18;30.10;19.20
67050;DHT22;53955;52.442;13.284;2023-09-07T11:37:51;30.00;19.40
67050;DHT22;53955;52.442;13.284;2023-09-07T11:40:18;30.10;19.40
67050;DHT22;53955;52.442;13.284;2023-09-07T11:42:44;30.30;20.40
67050;DHT22;53955;52.442;13.284;2023-09-07T11:45:11;30.40;18.60
67050;DHT22;53955;52.442;13.284;2023-09-07T11:47:39;30.20;18.30
67050;DHT22;53955;52.442;13.284;2023-09-07T11:50:06;30.50;19.70
67050;DHT22;53955;52.442;13.284;2023-09-07T11:52:34;30.30;17.80
67050;DHT22;53955;52.442;13.284;2023-09-07T11:55:01;30.30;18.50
67050;DHT22;53955;52.442;13.284;2023-09-07T11:57:28;30.20;19.00
67050;DHT22;53955;52.442;13.284;2023-09-07T11:59:55;30.40;20.70
67050;DHT22;53955;52.442;13.284;2023-09-07T12:02:22;30.40;18.30
67050;DHT22;53955;52.442;13.284;2023-09-07T12:04:48;30.50;18.60
67050;DHT22;53955;52.442;13.284;2023-09-07T12:07:15;30.60;18.10
67050;DHT22;53955;52.442;13.284;2023-09-07T12:09:43;30.50;19.10
67050;DHT22;53955;52.442;13.284;2023-09-07T12:12:10;30.40;18.40
67050;DHT22;53955;52.442;13.284;2023-09-07T12:14:37;30.60;18.90
67050;DHT22;53955;52.442;13.284;2023-09-07T12:17:03;30.80;18.80
67050;DHT22;53955;52.442;13.284;2023-09-07T12:19:30;30.80;18.50
67050;DHT22;53955;52.442;13.284;2023-09-07T12:21:56;30.80;17.40
67050;DHT22;53955;52.442;13.284;2023-09-07T12:24:23;30.70;17.10
67050;DHT22;53955;52.442;13.284;2023-09-07T12:26:51;30.50;17.50
67050;DHT22;53955;52.442;13.284;2023-09-07T12:29:17;30.50;18.20
67050;DHT22;53955;52.442;13.284;2023-09-07T12:31:45;30.60;16.90
67050;DHT22;53955;52.442;13.284;2023-09-07T12:34:12;30.50;17.40
67050;DHT22;53955;52.442;13.284;2023-09-07T12:36:38;30.20;17.80
67050;DHT22;53955;52.442;13.284;2023-09-07T12:39:06;30.10;17.50
67050;DHT22;53955;52.442;13.284;2023-09-07T12:41:32;30.50;17.80
67050;DHT22;53955;52.442;13.284;2023-09-07T12:44:00;30.40;18.30
67050;DHT22;53955;52.442;13.284;2023-09-07T12:46:28;30.50;17.20
67050;DHT22;53955;52.442;13.284;2023-09-07T12:48:54;30.70;17.10
67050;DHT22;53955;52.442;13.284;2023-09-07T12:51:21;30.80;17.00
67050;DHT22;53955;52.442;13.284;2023-09-07T12:53:47;30.70;17.70
67050;DHT22;53955;52.442;13.284;2023-09-07T12:56:14;30.80;17.10
67050;DHT22;53955;52.442;13.284;2023-09-07T12:58:41;30.70;16.80
67050;DHT22;53955;52.442;13.284;2023-09-07T13:01:09;30.30;15.20
67050;DHT22;53955;52.442;13.284;2023-09-07T13:03:37;30.40;16.40
67050;DHT22;53955;52.442;13.284;2023-09-07T13:06:04;30.30;16.60
67050;DHT22;53955;52.442;13.284;2023-09-07T13:08:30;30.50;17.00
67050;DHT22;53955;52.442;13.284;2023-09-07T13:10:57;30.40;17.50
67050;DHT22;53955;52.442;13.284;2023-09-07T13:13:24;30.20;17.40
67050;DHT22;53955;52.442;13.284;2023-09-07T13:15:54;30.40;17.70
67050;DHT22;53955;52.442;13.284;2023-09-07T13:18:21;30.20;17.50
67050;DHT22;53955;52.442;13.284;2023-09-07T13:20:48;30.40;18.10
67050;DHT22;53955;52.442;13.284;2023-09-07T13:23:17;30.30;18.60
67050;DHT22;53955;52.442;13.284;2023-09-07T13:25:44;30.30;19.40
67050;DHT22;53955;52.442;13.284;2023-09-07T13:28:10;30.30;19.40
67050;DHT22;53955;52.442;13.284;2023-09-07T13:30:37;30.40;19.50
67050;DHT22;53955;52.442;13.284;2023-09-07T13:33:04;30.30;19.90
67050;DHT22;53955;52.442;13.284;2023-09-07T13:35:32;30.50;19.80
67050;DHT22;53955;52.442;13.284;2023-09-07T13:37:58;30.40;18.90
67050;DHT22;53955;52.442;13.284;2023-09-07T13:40:25;30.50;19.20
67050;DHT22;53955;52.442;13.284;2023-09-07T13:42:55;30.60;18.20
67050;DHT22;53955;52.442;13.284;2023-09-07T13:45:21;30.20;18.50
67050;DHT22;53955;52.442;13.284;2023-09-07T13:47:48;30.20;18.60
67050;DHT22;53955;52.442;13.284;2023-09-07T13:50:15;30.20;18.40
67050;DHT22;53955;52.442;13.284;2023-09-07T13:52:43;30.30;19.60
67050;DHT22;53955;52.442;13.284;2023-09-07T13:55:09;30.40;18.20
67050;DHT22;53955;52.442;13.284;2023-09-07T13:57:36;30.60;19.20
67050;DHT22;53955;52.442;13.284;2023-09-07T14:00:03;30.70;18.90
67050;DHT22;53955;52.442;13.284;2023-09-07T14:02:31;30.80;18.50
67050;DHT22;53955;52.442;13.284;2023-09-07T14:04:58;30.80;17.80
67050;DHT22;53955;52.442;13.284;2023-09-07T14:07:24;30.80;18.10
67050;DHT22;53955;52.442;13.284;2023-09-07T14:09:54;30.70;18.20
67050;DHT22;53955;52.442;13.284;2023-09-07T14:12:20;30.80;17.20
67050;DHT22;53955;52.442;13.284;2023-09-07T14:14:47;30.70;17.00
67050;DHT22;53955;52.442;13.284;2023-09-07T14:17:14;30.70;16.90
67050;DHT22;53955;52.442;13.284;2023-09-07T14:19:40;30.60;17.40
67050;DHT22;53955;52.442;13.284;2023-09-07T14:22:07;30.70;17.50
67050;DHT22;53955;52.442;13.284;2023-09-07T14:24:33;30.70;17.80
67050;DHT22;53955;52.442;13.284;2023-09-07T14:27:01;30.80;17.40
67050;DHT22;53955;52.442;13.284;2023-09-07T14:29:28;30.70;17.90
67050;DHT22;53955;52.442;13.284;2023-09-07T14:31:55;30.70;18.00
67050;DHT22;53955;52.442;13.284;2023-09-07T14:34:21;30.80;19.00
67050;DHT22;53955;52.442;13.284;2023-09-07T14:36:48;30.70;17.90
67050;DHT22;53955;52.442;13.284;2023-09-07T14:39:14;30.70;19.10
67050;DHT22;53955;52.442;13.284;2023-09-07T14:41:43;30.80;18.20
67050;DHT22;53955;52.442;13.284;2023-09-07T14:44:11;30.70;18.20
67050;DHT22;53955;52.442;13.284;2023-09-07T14:46:37;30.50;17.90
67050;DHT22;53955;52.442;13.284;2023-09-07T14:49:04;30.30;18.90
67050;DHT22;53955;52.442;13.284;2023-09-07T14:51:31;30.40;19.00
67050;DHT22;53955;52.442;13.284;2023-09-07T14:53:57;30.20;19.30
67050;DHT22;53955;52.442;13.284;2023-09-07T14:56:24;30.40;19.60
67050;DHT22;53955;52.442;13.284;2023-09-07T14:58:51;30.40;18.60
67050;DHT22;53955;52.442;13.284;2023-09-07T15:01:19;30.30;16.70
67050;DHT22;53955;52.442;13.284;2023-09-07T15:03:46;30.20;16.30
67050;DHT22;53955;52.442;13.284;2023-09-07T15:06:13;30.30;17.10
67050;DHT22;53955;52.442;13.284;2023-09-07T15:08:41;30.20;16.60
67050;DHT22;53955;52.442;13.284;2023-09-07T15:11:07;30.40;17.50
67050;DHT22;53955;52.442;13.284;2023-09-07T15:13:34;30.20;17.70
67050;DHT22;53955;52.442;13.284;2023-09-07T15:16:01;30.20;16.50